Time;durP1;ratioP1;P1;durP2;ratioP2;P2;SDS_P1;SDS_P2;PMS_P1;PMS_P2;Temp;Humidity;BMP_temperature;BMP_pressure;BME280_temperature;BME280_humidity;BME280_pressure;Samples;Min_cycle;Max_cycle;Signal;HPM_P1;HPM_P2
2023/10/06 00:00:42;;;;;;;4.73;2.73;;;;;;;9.77;100.00;97300.69;5035714;28;20209;-68
2023/10/06 00:03:11;;;;;;;10.60;3.03;;;;;;;9.76;100.00;97309.59;5035164;28;20240;-69
2023/10/06 00:05:38;;;;;;;5.40;2.90;;;;;;;9.63;100.00;97310.88;5035332;28;20270;-67
2023/10/06 00:08:10;;;;;;;7.10;2.67;;;;;;;9.83;100.00;97315.09;5033803;28;20662;-68
2023/10/06 00:10:44;;;;;;;4.53;2.53;;;;;;;9.91;100.00;97328.34;5037846;28;20201;-68
2023/10/06 00:13:12;;;;;;;8.20;3.23;;;;;;;9.77;100.00;97327.00;5037933;28;20235;-68
2023/10/06 00:15:40;;;;;;;6.60;3.20;;;;;;;9.68;100.00;97318.34;5038750;28;20716;-68
2023/10/06 00:18:09;;;;;;;7.20;3.00;;;;;;;9.73;100.00;97319.56;5038107;28;20205;-68
2023/10/06 00:20:42;;;;;;;8.13;2.90;;;;;;;9.78;100.00;97326.03;5038895;28;20216;-69
2023/10/06 00:23:12;;;;;;;2.97;2.27;;;;;;;9.67;100.00;97320.13;5037958;28;20293;-69
2023/10/06 00:25:42;;;;;;;3.83;2.40;;;;;;;9.67;100.00;97319.31;5038916;28;20464;-68
2023/10/06 00:28:17;;;;;;;4.77;2.50;;;;;;;9.53;100.00;97322.44;5038044;28;20205;-68
2023/10/06 00:30:46;;;;;;;5.40;2.20;;;;;;;9.43;100.00;97322.47;5039054;28;20215;-68
2023/10/06 00:33:13;;;;;;;2.63;1.93;;;;;;;9.34;100.00;97319.84;5038785;28;20229;-68
2023/10/06 00:35:40;;;;;;;3.70;2.33;;;;;;;9.36;100.00;97316.13;5038642;28;20209;-68
2023/10/06 00:38:12;;;;;;;4.80;2.70;;;;;;;9.41;100.00;97319.16;5037326;28;20299;-68
2023/10/06 00:40:45;;;;;;;4.10;2.63;;;;;;;9.54;100.00;97309.13;5038348;28;20216;-68
2023/10/06 00:43:15;;;;;;;5.13;2.03;;;;;;;9.42;100.00;97310.28;5039406;28;20227;-68
2023/10/06 00:45:44;;;;;;;5.47;2.47;;;;;;;9.41;100.00;97302.53;5037960;28;20211;-69
2023/10/06 00:48:14;;;;;;;5.77;2.27;;;;;;;9.20;100.00;97308.00;5037521;28;20201;-68
2023/10/06 00:50:42;;;;;;;5.40;2.10;;;;;;;9.31;100.00;97304.38;5038299;28;20241;-69
2023/10/06 00:53:11;;;;;;;5.47;2.17;;;;;;;9.27;100.00;97301.19;5038662;28;20260;-67
2023/10/06 00:55:39;;;;;;;6.30;2.27;;;;;;;9.17;100.00;97303.00;5037538;28;20205;-68
2023/10/06 00:58:10;;;;;;;4.13;2.37;;;;;;;9.28;100.00;97296.78;5037587;28;20576;-67
2023/10/06 01:00:39;;;;;;;3.57;2.17;;;;;;;9.37;100.00;97291.47;5037819;28;20212;-68
2023/10/06 01:03:14;;;;;;;3.53;2.13;;;;;;;9.22;100.00;97286.81;5037314;28;20718;-68
2023/10/06 01:05:44;;;;;;;4.47;2.57;;;;;;;9.24;100.00;97284.84;5037549;28;20208;-68
2023/10/06 01:08:11;;;;;;;3.57;1.97;;;;;;;8.94;100.00;97282.47;5037793;28;20300;-68
2023/10/06 01:10:40;;;;;;;2.90;1.87;;;;;;;8.93;100.00;97291.31;5037781;28;20209;-68
2023/10/06 01:13:12;;;;;;;4.07;2.40;;;;;;;8.99;100.00;97293.38;5037677;28;20229;-69
2023/10/06 01:15:45;;;;;;;4.47;2.27;;;;;;;8.93;100.00;97296.56;5037621;28;20200;-68
2023/10/06 01:18:19;;;;;;;6.90;2.00;;;;;;;9.08;100.00;97299.59;5037674;28;20209;-68
2023/10/06 01:20:47;;;;;;;3.47;1.97;;;;;;;9.02;100.00;97297.53;5037578;28;20209;-68
2023/10/06 01:23:21;;;;;;;4.17;1.90;;;;;;;9.28;100.00;97294.16;5037527;28;20310;-69
2023/10/06 01:25:48;;;;;;;3.07;1.73;;;;;;;9.08;100.00;97295.16;5036954;28;20682;-69
2023/10/06 01:28:16;;;;;;;5.73;1.93;;;;;;;9.03;100.00;97292.13;5037399;28;20216;-69
2023/10/06 01:30:44;;;;;;;4.40;2.40;;;;;;;9.06;100.00;97294.47;5037255;28;20205;-68
2023/10/06 01:33:11;;;;;;;3.17;2.13;;;;;;;8.92;100.00;97294.91;5037510;28;20232;-68
2023/10/06 01:35:42;;;;;;;5.37;2.50;;;;;;;8.84;100.00;97299.22;5037124;28;20228;-68
2023/10/06 01:38:19;;;;;;;3.47;2.03;;;;;;;8.73;100.00;97299.38;5036999;28;20201;-68
2023/10/06 01:40:52;;;;;;;6.10;1.93;;;;;;;8.69;100.00;97292.75;5036710;28;20240;-68
2023/10/06 01:43:22;;;;;;;5.47;2.23;;;;;;;8.58;100.00;97291.09;5037488;28;20204;-68
2023/10/06 01:45:50;;;;;;;3.17;2.00;;;;;;;8.62;100.00;97287.22;5037434;28;20201;-68
2023/10/06 01:48:29;;;;;;;6.53;2.07;;;;;;;8.54;100.00;97289.72;5036561;28;20655;-68
2023/10/06 01:50:56;;;;;;;3.07;1.73;;;;;;;8.65;100.00;97286.94;5036196;28;20223;-68
2023/10/06 01:53:25;;;;;;;4.47;2.53;;;;;;;8.68;100.00;97288.44;5037660;28;20212;-68
2023/10/06 01:55:54;;;;;;;5.33;2.30;;;;;;;8.73;100.00;97288.84;5036762;28;20234;-68
2023/10/06 01:58:21;;;;;;;6.07;2.60;;;;;;;8.55;100.00;97285.28;5036619;28;20215;-69
2023/10/06 02:00:48;;;;;;;4.97;2.53;;;;;;;8.48;100.00;97287.63;5036867;28;20216;-68
2023/10/06 02:03:16;;;;;;;4.23;2.20;;;;;;;8.48;100.00;97281.56;5036965;28;20690;-68
2023/10/06 02:05:44;;;;;;;5.93;2.37;;;;;;;8.44;100.00;97280.19;5035975;28;20209;-68
2023/10/06 02:08:14;;;;;;;3.10;2.27;;;;;;;8.61;100.00;97279.47;5036150;28;21148;-69
2023/10/06 02:10:42;;;;;;;4.53;2.50;;;;;;;8.43;100.00;97275.91;5037098;28;20214;-68
2023/10/06 02:13:11;;;;;;;4.30;2.10;;;;;;;8.54;100.00;97273.97;5036356;28;20714;-69
2023/10/06 02:15:37;;;;;;;2.70;2.17;;;;;;;8.43;100.00;97275.09;5036623;28;20713;-68
2023/10/06 02:18:07;;;;;;;4.80;2.87;;;;;;;8.49;100.00;97272.72;5035431;28;20205;-68
2023/10/06 02:20:34;;;;;;;2.93;2.33;;;;;;;8.35;100.00;97270.50;5036565;28;20996;-68
2023/10/06 02:23:03;;;;;;;4.60;2.43;;;;;;;8.29;100.00;97268.44;5036069;28;20286;-67
2023/10/06 02:25:31;;;;;;;4.17;2.33;;;;;;;8.39;100.00;97260.53;5036875;28;20201;-69
2023/10/06 02:27:59;;;;;;;6.03;2.67;;;;;;;8.25;100.00;97261.81;5035355;28;20229;-68
2023/10/06 02:30:37;;;;;;;4.63;2.77;;;;;;;8.31;100.00;97263.03;5036237;28;20207;-68
2023/10/06 02:33:05;;;;;;;7.27;3.13;;;;;;;8.34;100.00;97254.88;5033756;28;20221;-68
2023/10/06 02:35:31;;;;;;;9.20;3.47;;;;;;;8.39;100.00;97266.66;5036566;28;20205;-68
2023/10/06 02:37:58;;;;;;;5.00;2.73;;;;;;;8.35;100.00;97265.28;5035665;28;20324;-69
2023/10/06 02:40:31;;;;;;;5.93;2.37;;;;;;;8.26;100.00;97254.75;5035817;28;20240;-69
2023/10/06 02:43:00;;;;;;;3.37;2.37;;;;;;;8.29;100.00;97260.56;5036378;28;20316;-67
2023/10/06 02:45:37;;;;;;;3.57;2.40;;;;;;;8.40;100.00;97254.31;5035307;28;20207;-68
2023/10/06 02:48:14;;;;;;;7.30;2.97;;;;;;;8.32;100.00;97256.81;5035163;28;20236;-68
2023/10/06 02:50:44;;;;;;;6.43;2.67;;;;;;;8.29;100.00;97259.75;5036783;28;20320;-68
2023/10/06 02:53:14;;;;;;;5.70;2.97;;;;;;;8.36;100.00;97253.78;5035118;28;20709;-69
2023/10/06 02:55:43;;;;;;;6.80;2.67;;;;;;;8.00;100.00;97256.22;5035652;28;20228;-68
2023/10/06 02:58:16;;;;;;;6.53;3.17;;;;;;;8.01;100.00;97266.59;5035575;28;20212;-68
2023/10/06 03:00:50;;;;;;;5.93;3.13;;;;;;;8.12;100.00;97268.25;5035515;28;20364;-68
2023/10/06 03:03:18;;;;;;;4.03;2.93;;;;;;;7.79;100.00;97279.13;5035531;28;20246;-68
2023/10/06 03:05:49;;;;;;;4.50;3.27;;;;;;;8.03;100.00;97266.44;5036155;28;20205;-68
2023/10/06 03:08:20;;;;;;;4.83;3.20;;;;;;;7.89;100.00;97264.22;5035507;28;20224;-68
2023/10/06 03:10:48;;;;;;;6.93;2.97;;;;;;;8.03;100.00;97269.06;5036424;28;20255;-69
2023/10/06 03:13:22;;;;;;;5.60;2.97;;;;;;;8.03;100.00;97263.81;5035933;28;20344;-67
2023/10/06 03:15:50;;;;;;;5.93;2.70;;;;;;;8.01;100.00;97257.91;5035569;28;20201;-68
2023/10/06 03:18:18;;;;;;;3.93;2.70;;;;;;;7.76;100.00;97254.94;5035263;28;20207;-69
2023/10/06 03:20:48;;;;;;;5.83;3.07;;;;;;;7.67;100.00;97258.38;5035348;28;20205;-68
2023/10/06 03:23:24;;;;;;;8.00;3.13;;;;;;;7.77;100.00;97260.06;5035728;28;20698;-68
2023/10/06 03:25:54;;;;;;;6.40;3.50;;;;;;;7.91;100.00;97257.03;5035062;28;20211;-68
2023/10/06 03:28:24;;;;;;;6.43;3.50;;;;;;;7.84;100.00;97253.31;5034968;28;20625;-69
2023/10/06 03:30:52;;;;;;;6.03;3.27;;;;;;;7.92;100.00;97258.72;5035569;28;20212;-68
2023/10/06 03:33:20;;;;;;;8.27;3.97;;;;;;;7.84;100.00;97260.34;5035380;28;20211;-68
2023/10/06 03:35:47;;;;;;;4.83;2.90;;;;;;;7.86;100.00;97259.25;5035555;28;20197;-68
2023/10/06 03:38:31;;;;;;;4.80;2.93;;;;;;;7.84;100.00;97261.19;5035077;28;20973;-69
2023/10/06 03:41:12;;;;;;;5.20;2.73;;;;;;;7.88;100.00;97262.56;5035137;28;20244;-69
2023/10/06 03:43:47;;;;;;;3.93;2.63;;;;;;;7.81;100.00;97261.44;5035904;28;20262;-68
2023/10/06 03:46:18;;;;;;;4.53;2.40;;;;;;;7.93;100.00;97255.13;5039225;28;20287;-69
2023/10/06 03:48:45;;;;;;;5.37;2.73;;;;;;;7.83;100.00;97249.03;5038499;28;20217;-68
2023/10/06 03:51:12;;;;;;;5.73;2.90;;;;;;;7.86;100.00;97254.00;5039513;28;20574;-68
2023/10/06 03:53:38;;;;;;;5.73;2.90;;;;;;;7.93;100.00;97255.13;5039732;28;20211;-68
2023/10/06 03:56:06;;;;;;;7.10;2.80;;;;;;;7.86;100.00;97254.00;5039151;28;20207;-68
2023/10/06 03:58:32;;;;;;;5.13;2.70;;;;;;;7.89;100.00;97253.72;5038813;28;20542;-68
2023/10/06 04:01:07;;;;;;;4.60;2.93;;;;;;;7.64;100.00;97262.09;5038911;28;20205;-68
2023/10/06 04:03:35;;;;;;;7.87;3.00;;;;;;;7.69;100.00;97274.81;5039268;28;20205;-68
2023/10/06 04:06:03;;;;;;;4.37;2.30;;;;;;;7.54;100.00;97273.53;5039210;28;20205;-68
2023/10/06 04:08:29;;;;;;;6.73;3.17;;;;;;;7.55;100.00;97275.22;5038916;28;20264;-69
2023/10/06 04:10:58;;;;;;;9.97;3.70;;;;;;;7.49;100.00;97280.97;5039134;28;20209;-69
2023/10/06 04:13:25;;;;;;;4.27;2.80;;;;;;;7.54;100.00;97274.34;5038642;28;20202;-69
2023/10/06 04:15:52;;;;;;;4.87;2.70;;;;;;;7.40;100.00;97277.34;5039055;28;20201;-68
2023/10/06 04:18:22;;;;;;;5.67;2.83;;;;;;;7.59;100.00;97264.31;5038601;28;20229;-69
2023/10/06 04:20:51;;;;;;;7.30;3.13;;;;;;;7.62;100.00;97266.66;5038107;28;20209;-68
2023/10/06 04:23:18;;;;;;;7.50;2.87;;;;;;;7.57;100.00;97258.34;5038652;28;20228;-69
2023/10/06 04:25:46;;;;;;;5.60;3.00;;;;;;;7.58;100.00;97265.25;5038754;28;20208;-68
2023/10/06 04:28:14;;;;;;;4.30;2.57;;;;;;;7.59;100.00;97266.09;5037753;28;20228;-68
2023/10/06 04:30:43;;;;;;;5.27;2.40;;;;;;;7.59;100.00;97260.84;5038364;28;20580;-68
2023/10/06 04:33:10;;;;;;;7.30;3.03;;;;;;;7.52;100.00;97257.94;5038142;28;20225;-68
2023/10/06 04:35:40;;;;;;;5.10;2.77;;;;;;;7.47;100.00;97251.41;5038692;28;20201;-68
2023/10/06 04:38:12;;;;;;;6.17;2.60;;;;;;;7.53;100.00;97251.72;5037969;28;20312;-69
2023/10/06 04:40:40;;;;;;;5.93;2.93;;;;;;;7.36;100.00;97254.16;5038166;28;20204;-68
2023/10/06 04:43:07;;;;;;;5.73;2.63;;;;;;;7.46;100.00;97234.88;5038427;28;20220;-68
2023/10/06 04:45:38;;;;;;;8.00;2.40;;;;;;;7.37;100.00;97234.84;5038482;28;20225;-68
2023/10/06 04:48:07;;;;;;;4.43;2.47;;;;;;;7.45;100.00;97233.19;5037709;28;20225;-69
2023/10/06 04:50:34;;;;;;;5.40;2.50;;;;;;;7.44;100.00;97235.97;5038626;28;20203;-68
2023/10/06 04:53:01;;;;;;;4.93;2.50;;;;;;;7.45;100.00;97229.75;5037993;28;20274;-68
2023/10/06 04:55:31;;;;;;;7.63;2.87;;;;;;;7.63;100.00;97217.66;5037413;28;20212;-68
2023/10/06 04:57:58;;;;;;;5.43;2.80;;;;;;;7.54;100.00;97224.53;5037921;28;20201;-68
2023/10/06 05:00:27;;;;;;;4.90;2.30;;;;;;;7.59;100.00;97217.09;5038412;28;20209;-68
2023/10/06 05:02:54;;;;;;;6.17;2.80;;;;;;;7.45;100.00;97227.13;5037620;28;20235;-68
2023/10/06 05:05:21;;;;;;;6.63;2.63;;;;;;;7.55;100.00;97220.94;5037927;28;20210;-68
2023/10/06 05:07:48;;;;;;;7.30;2.77;;;;;;;7.32;100.00;97232.63;5037288;28;20220;-68
2023/10/06 05:10:16;;;;;;;7.27;3.20;;;;;;;7.41;100.00;97228.38;5037924;28;20682;-68
2023/10/06 05:12:44;;;;;;;4.37;2.90;;;;;;;7.57;100.00;97231.28;5037345;28;21135;-68
2023/10/06 05:15:17;;;;;;;9.30;3.93;;;;;;;7.47;100.00;97236.53;5037951;28;21277;-68
2023/10/06 05:17:44;;;;;;;7.60;3.10;;;;;;;7.40;100.00;97240.63;5037139;28;20545;-68
2023/10/06 05:20:19;;;;;;;7.33;3.43;;;;;;;7.37;100.00;97230.44;5036719;28;20208;-68
2023/10/06 05:22:48;;;;;;;5.20;2.57;;;;;;;7.44;100.00;97238.59;5037185;28;20229;-68
2023/10/06 05:25:15;;;;;;;4.67;2.27;;;;;;;7.42;100.00;97243.13;5037258;28;20252;-68
2023/10/06 05:27:44;;;;;;;5.13;3.07;;;;;;;7.34;100.00;97246.44;5036395;28;20228;-68
2023/10/06 05:30:13;;;;;;;5.50;2.60;;;;;;;7.40;100.00;97237.19;5037604;28;20204;-68
2023/10/06 05:32:42;;;;;;;4.20;2.57;;;;;;;7.38;100.00;97239.97;5037520;28;20307;-68
2023/10/06 05:35:10;;;;;;;5.87;2.90;;;;;;;7.51;100.00;97243.16;5036924;28;20312;-68
2023/10/06 05:37:36;;;;;;;6.00;3.00;;;;;;;7.42;100.00;97233.47;5036919;28;20209;-68
2023/10/06 05:40:04;;;;;;;4.57;3.07;;;;;;;7.54;100.00;97227.16;5037665;28;20240;-68
2023/10/06 05:42:33;;;;;;;6.83;3.07;;;;;;;7.59;100.00;97240.69;5036550;28;20272;-68
2023/10/06 05:45:12;;;;;;;6.17;3.27;;;;;;;7.53;100.00;97246.47;5036759;28;20852;-68
2023/10/06 05:47:40;;;;;;;5.90;3.00;;;;;;;7.80;100.00;97244.03;5036520;28;20918;-68
2023/10/06 05:50:08;;;;;;;5.60;2.83;;;;;;;7.66;100.00;97244.44;5037208;28;20306;-68
2023/10/06 05:52:38;;;;;;;5.17;2.80;;;;;;;7.48;100.00;97253.91;5036587;28;20220;-68
2023/10/06 05:55:09;;;;;;;6.57;3.03;;;;;;;7.63;100.00;97251.75;5037144;28;20205;-68
2023/10/06 05:57:38;;;;;;;6.87;2.90;;;;;;;7.69;100.00;97254.66;5037172;28;20201;-68
2023/10/06 06:00:07;;;;;;;5.83;2.87;;;;;;;7.81;100.00;97255.38;5036583;28;20197;-68
2023/10/06 06:02:37;;;;;;;5.40;2.80;;;;;;;7.81;100.00;97265.88;5037007;28;20736;-68
2023/10/06 06:05:06;;;;;;;7.47;3.43;;;;;;;7.98;100.00;97258.16;5035880;28;20292;-68
2023/10/06 06:07:34;;;;;;;9.57;3.43;;;;;;;8.00;100.00;97264.91;5034946;28;20227;-68
2023/10/06 06:10:02;;;;;;;16.20;3.37;;;;;;;8.01;100.00;97274.47;5036669;28;20208;-68
2023/10/06 06:12:29;;;;;;;6.50;3.43;;;;;;;8.03;100.00;97274.31;5036313;28;20235;-68
2023/10/06 06:14:56;;;;;;;6.87;3.07;;;;;;;8.02;100.00;97273.50;5037020;28;20236;-68
2023/10/06 06:17:22;;;;;;;7.13;3.30;;;;;;;7.97;100.00;97280.94;5036340;28;20236;-68
2023/10/06 06:19:49;;;;;;;8.50;3.70;;;;;;;8.03;100.00;97292.69;5036073;28;20197;-68
2023/10/06 06:22:17;;;;;;;7.73;3.63;;;;;;;8.19;100.00;97287.78;5036775;28;20224;-68
2023/10/06 06:24:44;;;;;;;8.17;4.00;;;;;;;8.14;100.00;97279.50;5036061;28;20220;-68
2023/10/06 06:27:10;;;;;;;16.57;4.37;;;;;;;8.28;100.00;97284.34;5035647;28;20212;-68
2023/10/06 06:29:38;;;;;;;10.63;3.50;;;;;;;8.35;100.00;97293.31;5035560;28;20232;-68
2023/10/06 06:32:11;;;;;;;6.37;2.90;;;;;;;8.51;100.00;97284.75;5036758;28;20221;-68
2023/10/06 06:34:38;;;;;;;5.93;3.37;;;;;;;8.55;100.00;97295.78;5035644;28;20232;-68
2023/10/06 06:37:05;;;;;;;5.37;3.37;;;;;;;8.63;100.00;97282.78;5035879;28;20201;-68
2023/10/06 06:39:34;;;;;;;5.63;3.17;;;;;;;8.80;100.00;97287.34;5036042;28;20590;-68
2023/10/06 06:42:00;;;;;;;4.57;3.10;;;;;;;8.64;100.00;97305.47;5036336;28;20699;-68
2023/10/06 06:44:27;;;;;;;4.40;2.87;;;;;;;8.72;100.00;97303.81;5036225;28;20209;-68
2023/10/06 06:46:54;;;;;;;5.87;3.20;;;;;;;8.71;100.00;97307.41;5035040;28;20209;-68
2023/10/06 06:49:21;;;;;;;5.30;3.20;;;;;;;8.85;100.00;97306.97;5036055;28;20225;-68
2023/10/06 06:51:47;;;;;;;5.03;2.83;;;;;;;8.97;100.00;97305.81;5036101;28;20221;-68
2023/10/06 06:54:14;;;;;;;6.53;3.47;;;;;;;9.19;100.00;97311.59;5035872;28;20925;-68
2023/10/06 06:56:42;;;;;;;7.07;3.00;;;;;;;9.17;100.00;97310.09;5035624;28;20201;-69
2023/10/06 06:59:09;;;;;;;6.90;3.03;;;;;;;9.01;100.00;97309.84;5036157;28;20197;-69
2023/10/06 07:01:38;;;;;;;7.13;3.30;;;;;;;9.18;100.00;97311.75;5034830;28;20710;-68
2023/10/06 07:04:06;;;;;;;7.40;3.53;;;;;;;9.25;100.00;97310.19;5035540;28;20212;-68
2023/10/06 07:06:32;;;;;;;6.40;3.20;;;;;;;9.19;100.00;97316.06;5035549;28;20953;-69
2023/10/06 07:08:59;;;;;;;10.53;4.00;;;;;;;9.20;100.00;97313.28;5034824;28;20221;-69
2023/10/06 07:11:26;;;;;;;8.37;3.83;;;;;;;9.17;100.00;97299.56;5032977;28;20693;-69
2023/10/06 07:13:55;;;;;;;8.20;4.00;;;;;;;9.24;100.00;97303.28;5035178;28;20201;-69
2023/10/06 07:16:24;;;;;;;7.73;3.83;;;;;;;9.12;100.00;97305.25;5034384;28;20205;-69
2023/10/06 07:18:51;;;;;;;8.47;4.50;;;;;;;9.16;100.00;97305.78;5035590;28;20681;-68
2023/10/06 07:21:18;;;;;;;7.07;3.80;;;;;;;9.01;100.00;97304.56;5039689;28;20227;-69
2023/10/06 07:23:45;;;;;;;6.90;4.00;;;;;;;9.14;100.00;97299.88;5038317;28;20777;-69
2023/10/06 07:26:13;;;;;;;7.47;3.97;;;;;;;9.33;100.00;97290.09;5038411;28;20197;-69
2023/10/06 07:28:40;;;;;;;6.93;4.20;;;;;;;9.30;100.00;97302.72;5039318;28;20216;-68
2023/10/06 07:31:12;;;;;;;11.23;4.43;;;;;;;9.63;100.00;97303.00;5038739;28;20208;-68
2023/10/06 07:33:39;;;;;;;10.53;4.87;;;;;;;9.87;100.00;97304.09;5037353;28;20205;-69
2023/10/06 07:36:13;;;;;;;7.60;3.73;;;;;;;10.17;100.00;97303.00;5037862;28;20197;-69
2023/10/06 07:38:40;;;;;;;6.13;3.13;;;;;;;9.97;100.00;97307.56;5038499;28;20200;-68
2023/10/06 07:41:07;;;;;;;6.43;3.83;;;;;;;10.21;100.00;97310.47;5039508;28;20232;-68
2023/10/06 07:43:34;;;;;;;5.53;3.50;;;;;;;10.41;100.00;97317.22;5039245;28;20705;-69
2023/10/06 07:46:07;;;;;;;6.33;3.70;;;;;;;10.59;100.00;97310.16;5039017;28;20232;-69
2023/10/06 07:48:37;;;;;;;5.60;3.30;;;;;;;10.60;100.00;97311.81;5038036;28;20416;-69
2023/10/06 07:51:05;;;;;;;4.93;3.47;;;;;;;10.68;100.00;97311.88;5039039;28;20283;-69
2023/10/06 07:53:32;;;;;;;8.90;3.33;;;;;;;10.60;100.00;97306.53;5040090;28;20289;-69
2023/10/06 07:56:06;;;;;;;8.60;3.60;;;;;;;10.99;100.00;97303.41;5039043;28;20208;-69
2023/10/06 07:58:32;;;;;;;5.40;3.03;;;;;;;10.75;100.00;97307.69;5037781;28;20248;-69
2023/10/06 08:01:02;;;;;;;7.13;3.23;;;;;;;10.97;100.00;97308.84;5038994;28;20205;-69
2023/10/06 08:03:29;;;;;;;5.30;3.03;;;;;;;11.02;100.00;97298.66;5039608;28;20249;-69
2023/10/06 08:06:00;;;;;;;7.93;3.50;;;;;;;11.44;100.00;97299.59;5038612;28;20216;-69
2023/10/06 08:08:28;;;;;;;5.97;3.67;;;;;;;11.42;100.00;97295.44;5038979;28;20227;-69
2023/10/06 08:10:56;;;;;;;8.50;3.03;;;;;;;11.56;100.00;97293.09;5038922;28;20501;-69
2023/10/06 08:13:23;;;;;;;8.33;3.43;;;;;;;11.62;100.00;97292.44;5037978;28;20671;-69
2023/10/06 08:15:50;;;;;;;7.73;4.03;;;;;;;11.70;100.00;97297.78;5038944;28;20211;-69
2023/10/06 08:18:17;;;;;;;6.43;3.37;;;;;;;11.44;100.00;97294.31;5038265;28;20304;-69
2023/10/06 08:20:44;;;;;;;5.73;3.27;;;;;;;11.70;100.00;97290.69;5038417;28;20208;-69
2023/10/06 08:23:12;;;;;;;14.03;4.13;;;;;;;11.97;100.00;97284.34;5037785;28;20372;-69
2023/10/06 08:25:38;;;;;;;12.63;5.10;;;;;;;12.05;100.00;97293.13;5038838;28;20599;-69
2023/10/06 08:28:07;;;;;;;11.57;4.83;;;;;;;12.04;100.00;97301.22;5037420;28;20194;-69
2023/10/06 08:30:34;;;;;;;10.73;5.00;;;;;;;12.03;100.00;97289.81;5037378;28;20592;-69
2023/10/06 08:33:02;;;;;;;15.00;5.00;;;;;;;11.98;100.00;97293.94;5037628;28;20248;-69
2023/10/06 08:35:29;;;;;;;9.00;4.60;;;;;;;12.01;100.00;97293.63;5038077;28;20262;-69
2023/10/06 08:37:56;;;;;;;10.60;5.50;;;;;;;12.09;100.00;97291.00;5037314;28;20202;-69
2023/10/06 08:40:26;;;;;;;10.47;5.20;;;;;;;12.25;100.00;97282.09;5038672;28;20216;-69
2023/10/06 08:42:54;;;;;;;10.10;4.43;;;;;;;12.06;100.00;97283.41;5037567;28;20652;-69
2023/10/06 08:45:22;;;;;;;6.40;3.93;;;;;;;12.16;100.00;97281.44;5037610;28;20213;-69
2023/10/06 08:47:51;;;;;;;9.47;4.77;;;;;;;12.26;100.00;97275.03;5036482;28;20197;-69
2023/10/06 08:50:22;;;;;;;9.43;4.77;;;;;;;12.37;100.00;97279.97;5038202;28;20235;-69
2023/10/06 08:52:51;;;;;;;9.47;5.03;;;;;;;12.65;100.00;97273.41;5037440;28;20224;-69
2023/10/06 08:55:17;;;;;;;18.37;5.30;;;;;;;12.35;100.00;97280.16;5038078;28;20201;-69
2023/10/06 08:57:46;;;;;;;8.97;4.63;;;;;;;12.43;100.00;97285.44;5037848;28;20205;-69
2023/10/06 09:00:14;;;;;;;8.43;5.17;;;;;;;12.50;100.00;97285.63;5037405;28;20224;-69
2023/10/06 09:02:42;;;;;;;16.13;5.30;;;;;;;12.59;100.00;97285.47;5038285;28;20233;-69
2023/10/06 09:05:10;;;;;;;11.07;5.73;;;;;;;12.38;100.00;97286.94;5037632;28;20259;-69
2023/10/06 09:07:37;;;;;;;12.27;6.13;;;;;;;12.34;100.00;97282.97;5037470;28;20209;-69
2023/10/06 09:10:17;;;;;;;18.00;4.80;;;;;;;12.57;100.00;97284.81;5038187;28;20248;-69
2023/10/06 09:12:43;;;;;;;10.73;4.97;;;;;;;12.20;100.00;97279.13;5037616;28;20252;-69
2023/10/06 09:15:16;;;;;;;9.70;5.23;;;;;;;12.80;100.00;97272.59;5037822;28;20205;-69
2023/10/06 09:17:43;;;;;;;10.03;5.00;;;;;;;12.73;100.00;97279.53;5036330;28;20231;-69
2023/10/06 09:20:11;;;;;;;16.73;5.60;;;;;;;12.94;100.00;97279.88;5037504;28;21113;-69
2023/10/06 09:22:45;;;;;;;10.50;5.10;;;;;;;13.38;100.00;97277.50;5037544;28;20775;-69
2023/10/06 09:25:13;;;;;;;12.47;5.43;;;;;;;13.30;100.00;97268.78;5036877;28;20212;-69
2023/10/06 09:27:41;;;;;;;10.40;5.53;;;;;;;13.31;100.00;97265.09;5037106;28;20220;-68
2023/10/06 09:30:10;;;;;;;12.73;5.80;;;;;;;13.48;100.00;97262.25;5037104;28;20229;-68
2023/10/06 09:32:39;;;;;;;17.10;5.47;;;;;;;13.47;100.00;97267.72;5037480;28;20225;-68
2023/10/06 09:35:19;;;;;;;8.70;4.83;;;;;;;13.89;100.00;97269.06;5036843;28;20207;-68
2023/10/06 09:37:45;;;;;;;10.30;5.23;;;;;;;13.36;100.00;97276.03;5036039;28;20280;-69
2023/10/06 09:40:20;;;;;;;8.82;4.80;;;;;;;13.80;100.00;97270.09;5036769;28;20200;-68
2023/10/06 09:42:48;;;;;;;7.60;4.40;;;;;;;13.99;100.00;97264.38;5034907;28;20221;-68
2023/10/06 09:45:20;;;;;;;9.47;4.93;;;;;;;14.20;100.00;97254.03;5036676;28;20197;-68
2023/10/06 09:47:50;;;;;;;9.60;4.90;;;;;;;14.36;100.00;97261.91;5035741;28;20690;-69
2023/10/06 09:50:19;;;;;;;14.27;5.68;;;;;;;14.33;100.00;97259.56;5034087;28;20232;-69
2023/10/06 09:52:47;;;;;;;9.27;5.00;;;;;;;14.51;100.00;97260.97;5036070;28;20224;-69
2023/10/06 09:55:15;;;;;;;10.40;4.80;;;;;;;14.96;100.00;97259.09;5036905;28;20209;-69
2023/10/06 09:57:43;;;;;;;11.65;4.88;;;;;;;15.33;100.00;97267.09;5036301;28;20201;-69
2023/10/06 10:00:16;;;;;;;9.88;4.47;;;;;;;15.33;100.00;97254.63;5036182;28;20204;-69
2023/10/06 10:02:45;;;;;;;12.95;4.75;;;;;;;15.28;100.00;97258.81;5036771;28;20229;-69
2023/10/06 10:05:14;;;;;;;12.57;4.93;;;;;;;15.52;100.00;97264.72;5035506;28;20216;-71
2023/10/06 10:07:41;;;;;;;12.68;4.82;;;;;;;15.42;100.00;97263.34;5036037;28;20255;-69
2023/10/06 10:10:10;;;;;;;8.82;4.90;;;;;;;15.67;100.00;97254.06;5036352;28;20237;-69
2023/10/06 10:12:50;;;;;;;14.75;5.10;;;;;;;15.48;100.00;97262.63;5037334;28;20230;-69
2023/10/06 10:15:28;;;;;;;11.27;4.20;;;;;;;15.72;100.00;97254.34;5036269;28;20247;-69
2023/10/06 10:18:04;;;;;;;8.93;4.55;;;;;;;16.06;100.00;97245.63;5035509;28;20201;-69
2023/10/06 10:20:32;;;;;;;9.27;4.40;;;;;;;16.00;100.00;97246.38;5036417;28;20247;-69
2023/10/06 10:23:02;;;;;;;10.57;4.30;;;;;;;16.38;100.00;97245.22;5036252;28;20275;-69
2023/10/06 10:25:30;;;;;;;11.48;4.80;;;;;;;16.46;100.00;97244.25;5036039;28;20211;-69
2023/10/06 10:28:19;;;;;;;7.38;4.50;;;;;;;16.65;100.00;97247.94;5036083;28;20202;-69
2023/10/06 10:30:51;;;;;;;10.65;5.35;;;;;;;16.78;100.00;97240.09;5035980;28;20278;-69
2023/10/06 10:33:21;;;;;;;11.23;4.97;;;;;;;16.53;100.00;97240.66;5036607;28;20643;-69
2023/10/06 10:36:19;;;;;;;14.45;4.60;;;;;;;16.57;100.00;97237.44;5036154;28;20200;-69
2023/10/06 10:38:58;;;;;;;7.90;4.15;;;;;;;17.08;100.00;97234.41;5035021;28;20307;-69
2023/10/06 10:41:26;;;;;;;11.57;4.28;;;;;;;16.93;100.00;97245.31;5035806;28;20217;-69
2023/10/06 10:43:53;;;;;;;12.30;5.22;;;;;;;16.77;100.00;97240.28;5036791;28;20671;-69
2023/10/06 10:46:31;;;;;;;9.73;4.80;;;;;;;17.23;100.00;97232.50;5035619;28;20239;-69
2023/10/06 10:48:58;;;;;;;8.63;4.40;;;;;;;17.19;100.00;97227.72;5035539;28;20667;-69
2023/10/06 10:51:25;;;;;;;10.45;4.93;;;;;;;17.29;100.00;97217.59;5036233;28;20228;-69
2023/10/06 10:53:54;;;;;;;12.73;4.85;;;;;;;17.66;100.00;97215.34;5035701;28;20197;-70
2023/10/06 10:56:36;;;;;;;11.25;4.47;;;;;;;17.62;100.00;97216.78;5035236;28;20893;-69
2023/10/06 10:59:03;;;;;;;9.82;4.78;;;;;;;17.28;100.00;97210.59;5033575;28;20212;-69
2023/10/06 11:01:32;;;;;;;6.95;3.83;;;;;;;17.35;100.00;97206.97;5035239;28;20233;-69
2023/10/06 11:04:29;;;;;;;10.98;4.28;;;;;;;17.69;100.00;97208.81;5035916;28;20297;-69
2023/10/06 11:06:58;;;;;;;8.95;4.10;;;;;;;17.30;100.00;97209.41;5035006;28;20224;-69
2023/10/06 11:09:29;;;;;;;10.65;4.35;;;;;;;17.70;100.00;97200.59;5036429;28;20256;-69
2023/10/06 11:11:56;;;;;;;9.27;4.50;;;;;;;17.80;100.00;97206.41;5035042;28;20729;-69
2023/10/06 11:14:25;;;;;;;9.07;4.40;;;;;;;17.96;100.00;97206.91;5036408;28;20228;-69
2023/10/06 11:16:52;;;;;;;11.68;5.22;;;;;;;17.86;100.00;97201.09;5035183;28;20259;-69
2023/10/06 11:19:19;;;;;;;8.75;4.13;;;;;;;17.74;100.00;97205.38;5036137;28;20538;-69
2023/10/06 11:21:47;;;;;;;7.28;3.92;;;;;;;17.71;100.00;97201.44;5035515;28;20225;-69
2023/10/06 11:24:26;;;;;;;9.38;3.85;;;;;;;17.92;100.00;97189.66;5036275;28;20233;-69
2023/10/06 11:26:53;;;;;;;8.00;4.05;;;;;;;17.48;100.00;97185.72;5033857;28;20189;-69
2023/10/06 11:29:30;;;;;;;10.45;4.10;;;;;;;17.92;100.00;97183.47;5036291;28;20225;-69
2023/10/06 11:31:58;;;;;;;8.70;4.13;;;;;;;17.93;100.00;97185.94;5035317;28;20227;-69
2023/10/06 11:34:25;;;;;;;8.80;4.18;;;;;;;18.22;100.00;97188.34;5035962;28;20201;-69
2023/10/06 11:36:54;;;;;;;11.45;4.43;;;;;;;18.24;100.00;97183.63;5034350;28;20671;-69
2023/10/06 11:39:23;;;;;;;8.50;3.90;;;;;;;18.16;100.00;97164.28;5035758;28;20236;-69